createdAt,value
2018-07-06T00:01:35.245Z,4.70
2018-07-06T00:04:14.893Z,4.47
2018-07-06T00:06:54.445Z,4.00
2018-07-06T00:09:34.076Z,4.20
2018-07-06T00:12:13.745Z,4.20
2018-07-06T00:14:53.413Z,4.17
2018-07-06T00:17:32.977Z,4.20
2018-07-06T00:20:12.569Z,4.63
2018-07-06T00:22:52.053Z,4.20
2018-07-06T00:25:31.893Z,5.53
2018-07-06T00:28:11.481Z,4.47
2018-07-06T00:30:50.984Z,4.50
2018-07-06T00:33:30.418Z,4.03
2018-07-06T00:36:09.950Z,5.50
2018-07-06T00:38:49.425Z,5.20
2018-07-06T00:41:28.805Z,4.67
2018-07-06T00:44:08.330Z,5.10
2018-07-06T00:46:47.985Z,4.20
2018-07-06T00:49:27.757Z,4.23
2018-07-06T00:52:07.632Z,4.07
2018-07-06T00:54:47.297Z,4.80
2018-07-06T00:57:26.765Z,5.07
2018-07-06T01:00:06.326Z,4.60
2018-07-06T01:02:45.864Z,4.60
2018-07-06T01:05:25.421Z,4.80
2018-07-06T01:08:04.949Z,4.20
2018-07-06T01:10:44.445Z,4.93
2018-07-06T01:13:24.261Z,4.40
2018-07-06T01:16:03.841Z,4.20
2018-07-06T01:18:43.311Z,4.30
2018-07-06T01:21:22.995Z,4.30
2018-07-06T01:24:02.699Z,4.63
2018-07-06T01:26:42.356Z,5.13
2018-07-06T01:29:22.888Z,5.33
2018-07-06T01:32:02.476Z,3.80
2018-07-06T01:34:41.893Z,5.63
2018-07-06T01:37:21.421Z,4.93
2018-07-06T01:40:01.065Z,4.73
2018-07-06T01:42:41.658Z,5.10
2018-07-06T01:45:21.173Z,4.57
2018-07-06T01:48:00.753Z,3.93
2018-07-06T01:50:40.334Z,4.90
2018-07-06T01:53:19.905Z,4.50
2018-07-06T01:55:59.637Z,4.77
2018-07-06T01:58:40.146Z,5.00
2018-07-06T02:01:19.691Z,4.07
2018-07-06T02:03:59.492Z,4.77
2018-07-06T02:06:39.082Z,5.07
2018-07-06T02:09:18.573Z,4.70
2018-07-06T02:11:58.017Z,4.70
2018-07-06T02:14:38.644Z,5.27
2018-07-06T02:17:18.289Z,5.63
2018-07-06T02:19:57.940Z,5.40
2018-07-06T02:22:37.718Z,5.43
2018-07-06T02:25:17.387Z,4.43
2018-07-06T02:27:56.973Z,5.00
2018-07-06T02:30:36.525Z,5.80
2018-07-06T02:33:16.223Z,5.03
2018-07-06T02:35:55.864Z,4.77
2018-07-06T02:38:35.521Z,5.67
2018-07-06T02:41:15.097Z,5.03
2018-07-06T02:43:54.805Z,5.00
2018-07-06T02:46:34.556Z,5.50
2018-07-06T02:49:14.242Z,5.80
2018-07-06T02:51:53.933Z,6.00
2018-07-06T02:54:33.604Z,6.30
2018-07-06T02:57:13.209Z,5.80
2018-07-06T02:59:52.798Z,6.90
2018-07-06T03:02:32.342Z,5.23
2018-07-06T03:05:11.885Z,5.50
2018-07-06T03:07:51.689Z,6.40
2018-07-06T03:10:31.261Z,5.13
2018-07-06T03:13:10.974Z,5.70
2018-07-06T03:15:50.645Z,5.90
2018-07-06T03:18:30.250Z,5.60
2018-07-06T03:21:09.766Z,6.03
2018-07-06T03:23:49.534Z,5.73
2018-07-06T03:26:29.219Z,7.00
2018-07-06T03:29:08.677Z,5.57
2018-07-06T03:31:48.202Z,6.30
2018-07-06T03:34:27.885Z,6.37
2018-07-06T03:37:07.384Z,6.07
2018-07-06T03:39:47.021Z,6.67
2018-07-06T03:42:26.664Z,6.30
2018-07-06T03:45:06.210Z,8.23
2018-07-06T03:47:45.765Z,7.13
2018-07-06T03:50:25.445Z,6.80
2018-07-06T03:53:05.121Z,6.73
2018-07-06T03:55:44.829Z,7.23
2018-07-06T03:58:24.535Z,6.90
2018-07-06T04:01:04.287Z,7.20
2018-07-06T04:03:44.017Z,7.33
2018-07-06T04:06:24.678Z,6.57
2018-07-06T04:09:05.221Z,7.43
2018-07-06T04:11:44.997Z,7.53
2018-07-06T04:14:25.709Z,6.73
2018-07-06T04:17:05.360Z,6.97
2018-07-06T04:19:44.925Z,6.90
2018-07-06T04:22:24.476Z,9.50
2018-07-06T04:25:03.961Z,8.20
2018-07-06T04:27:43.599Z,7.80
2018-07-06T04:30:23.281Z,8.77
2018-07-06T04:33:02.819Z,7.27
2018-07-06T04:35:42.369Z,7.40
2018-07-06T04:38:22.033Z,7.70
2018-07-06T04:41:01.531Z,6.30
2018-07-06T04:43:40.993Z,6.80
2018-07-06T04:46:20.623Z,6.57
2018-07-06T04:49:00.253Z,5.63
2018-07-06T04:51:39.797Z,6.13
2018-07-06T04:54:19.346Z,6.70
2018-07-06T04:56:58.860Z,6.90
2018-07-06T04:59:38.402Z,5.80
2018-07-06T05:02:17.942Z,6.33
2018-07-06T05:04:57.385Z,5.90
2018-07-06T05:07:36.947Z,5.73
2018-07-06T05:10:16.428Z,5.90
2018-07-06T05:12:56.674Z,5.80
2018-07-06T05:15:36.197Z,7.10
2018-07-06T05:18:15.721Z,6.63
2018-07-06T05:20:55.283Z,6.53
2018-07-06T05:23:34.910Z,6.30
2018-07-06T05:26:14.429Z,6.57
2018-07-06T05:28:53.905Z,6.60
2018-07-06T05:31:35.625Z,6.17
2018-07-06T05:34:15.340Z,6.97
2018-07-06T05:36:55.330Z,7.20
2018-07-06T05:39:34.765Z,7.90
2018-07-06T05:42:14.381Z,7.43
2018-07-06T05:44:53.978Z,7.90
2018-07-06T05:47:33.689Z,6.80
2018-07-06T05:50:13.463Z,6.53
2018-07-06T05:52:53.165Z,6.00
2018-07-06T05:55:32.726Z,7.03
2018-07-06T05:58:12.261Z,5.73
2018-07-06T06:00:51.809Z,5.87
2018-07-06T06:03:31.377Z,6.00
2018-07-06T06:06:11.926Z,7.10
2018-07-06T06:08:39.100Z,5.93
2018-07-06T06:11:08.460Z,5.97
2018-07-06T06:13:36.942Z,5.80
2018-07-06T06:16:05.887Z,6.93
2018-07-06T06:18:35.340Z,5.73
2018-07-06T06:21:03.633Z,5.97
2018-07-06T06:23:31.893Z,6.03
2018-07-06T06:26:00.150Z,5.87
2018-07-06T06:28:28.445Z,6.67
2018-07-06T06:30:56.722Z,7.73
2018-07-06T06:33:25.178Z,6.27
2018-07-06T06:35:53.388Z,5.57
2018-07-06T06:38:21.869Z,5.60
2018-07-06T06:40:50.173Z,5.43
2018-07-06T06:43:18.493Z,5.87
2018-07-06T06:45:46.777Z,6.30
2018-07-06T06:48:15.107Z,5.90
2018-07-06T06:50:43.459Z,5.10
2018-07-06T06:53:11.860Z,6.23
2018-07-06T06:55:40.101Z,5.93
2018-07-06T06:58:08.524Z,6.27
2018-07-06T07:00:36.845Z,5.63
2018-07-06T07:03:05.229Z,5.83
2018-07-06T07:05:33.615Z,5.70
2018-07-06T07:08:01.916Z,6.63
2018-07-06T07:10:30.181Z,4.90
2018-07-06T07:12:58.490Z,5.90
2018-07-06T07:15:28.104Z,4.90
2018-07-06T07:17:56.405Z,5.43
2018-07-06T07:20:24.714Z,4.80
2018-07-06T07:22:52.985Z,4.40
2018-07-06T07:25:21.265Z,5.33
2018-07-06T07:27:49.581Z,5.33
2018-07-06T07:30:17.885Z,5.90
2018-07-06T07:32:46.277Z,5.13
2018-07-06T07:35:15.728Z,4.90
2018-07-06T07:37:44.292Z,4.77
2018-07-06T07:40:12.597Z,5.63
2018-07-06T07:42:41.050Z,5.00
2018-07-06T07:45:09.365Z,4.90
2018-07-06T07:47:37.662Z,4.50
2018-07-06T07:50:05.965Z,4.33
2018-07-06T07:53:45.261Z,5.10
2018-07-06T07:56:14.700Z,3.80
2018-07-06T07:58:42.985Z,4.37
2018-07-06T08:01:11.327Z,5.47
2018-07-06T08:03:39.881Z,5.50
2018-07-06T08:06:08.197Z,4.37
2018-07-06T08:10:05.603Z,5.23
2018-07-06T08:12:33.944Z,6.00
2018-07-06T08:15:02.256Z,5.17
2018-07-06T08:17:30.561Z,5.10
2018-07-06T08:19:58.845Z,5.37
2018-07-06T08:22:27.145Z,4.43
2018-07-06T08:24:55.418Z,4.43
2018-07-06T08:27:23.716Z,4.93
2018-07-06T08:29:51.993Z,3.73
2018-07-06T08:32:20.277Z,4.20
2018-07-06T08:35:00.028Z,4.20
2018-07-06T08:37:45.683Z,2.90
2018-07-06T08:40:14.193Z,3.10
2018-07-06T08:42:44.035Z,4.60
2018-07-06T08:45:12.588Z,3.20
2018-07-06T08:47:41.097Z,3.30
2018-07-06T08:50:09.753Z,4.50
2018-07-06T08:52:38.879Z,4.17
2018-07-06T08:55:07.653Z,4.20
2018-07-06T08:57:36.753Z,3.83
2018-07-06T09:00:05.078Z,3.50
2018-07-06T09:02:33.345Z,3.90
2018-07-06T09:05:02.095Z,3.23
2018-07-06T09:07:30.549Z,3.70
2018-07-06T09:09:59.682Z,4.20
2018-07-06T09:12:28.097Z,3.20
2018-07-06T09:14:56.840Z,2.90
2018-07-06T09:17:25.305Z,3.27
2018-07-06T09:19:54.556Z,3.10
2018-07-06T09:22:22.825Z,3.23
2018-07-06T09:24:52.434Z,2.80
2018-07-06T09:27:20.831Z,3.07
2018-07-06T09:29:49.172Z,2.77
2018-07-06T09:32:17.453Z,3.00
2018-07-06T09:34:45.729Z,3.10
2018-07-06T09:37:14.202Z,2.63
2018-07-06T09:39:43.460Z,2.47
2018-07-06T09:42:11.861Z,2.73
2018-07-06T09:44:40.138Z,2.43
2018-07-06T09:47:08.790Z,2.87
2018-07-06T09:49:38.106Z,2.30
2018-07-06T09:52:06.385Z,2.40
2018-07-06T09:54:34.773Z,2.70
2018-07-06T09:57:03.037Z,2.77
2018-07-06T09:59:31.332Z,2.70
2018-07-06T10:02:00.918Z,2.47
2018-07-06T10:04:29.255Z,3.40
2018-07-06T10:06:57.573Z,3.40
2018-07-06T10:09:25.834Z,3.70
2018-07-06T10:11:54.264Z,2.73
2018-07-06T10:14:22.580Z,2.60
2018-07-06T10:16:51.061Z,2.80
2018-07-06T10:19:19.551Z,2.10
2018-07-06T10:21:47.818Z,2.13
2018-07-06T10:24:16.084Z,2.60
2018-07-06T10:26:44.385Z,2.60
2018-07-06T10:29:23.804Z,3.20
2018-07-06T10:32:26.798Z,3.00
2018-07-06T10:34:55.650Z,3.10
2018-07-06T10:37:24.196Z,2.70
2018-07-06T10:39:52.976Z,3.27
2018-07-06T10:42:21.224Z,2.30
2018-07-06T10:44:49.489Z,2.87
2018-07-06T10:47:17.813Z,3.00
2018-07-06T10:49:46.158Z,2.63
2018-07-06T10:52:15.179Z,2.60
2018-07-06T10:54:44.253Z,3.40
2018-07-06T10:57:12.553Z,3.00
2018-07-06T10:59:40.820Z,2.10
2018-07-06T11:02:09.492Z,2.27
2018-07-06T11:04:37.753Z,2.20
2018-07-06T11:07:06.273Z,2.20
2018-07-06T11:09:34.647Z,2.87
2018-07-06T11:12:02.941Z,2.37
2018-07-06T11:14:31.265Z,2.97
2018-07-06T11:16:59.897Z,2.73
2018-07-06T11:19:28.166Z,2.70
2018-07-06T11:21:56.500Z,2.67
2018-07-06T11:24:24.805Z,2.50
2018-07-06T11:26:53.081Z,2.73
2018-07-06T11:29:21.373Z,2.73
2018-07-06T11:31:49.658Z,2.70
2018-07-06T11:34:17.921Z,2.63
2018-07-06T11:36:46.293Z,2.27
2018-07-06T11:39:14.885Z,4.37
2018-07-06T11:41:43.232Z,2.33
2018-07-06T11:44:11.498Z,2.43
2018-07-06T11:46:39.994Z,2.60
2018-07-06T11:49:08.273Z,2.10
2018-07-06T11:51:36.534Z,3.33
2018-07-06T11:54:04.913Z,3.83
2018-07-06T11:56:33.209Z,3.83
2018-07-06T11:59:01.469Z,4.17
2018-07-06T12:01:29.730Z,6.70
2018-07-06T12:03:58.014Z,6.60
2018-07-06T12:06:26.292Z,4.30
2018-07-06T12:08:54.593Z,2.00
2018-07-06T12:11:22.873Z,2.10
2018-07-06T12:13:51.142Z,2.30
2018-07-06T12:16:19.411Z,2.47
2018-07-06T12:18:47.725Z,3.07
2018-07-06T12:21:16.097Z,2.53
2018-07-06T12:23:44.253Z,1.90
2018-07-06T12:26:12.516Z,2.73
2018-07-06T12:28:40.841Z,2.90
2018-07-06T12:31:09.121Z,2.40
2018-07-06T12:33:37.409Z,2.40
2018-07-06T12:36:05.709Z,2.33
2018-07-06T12:38:33.983Z,2.87
2018-07-06T12:41:02.237Z,2.07
2018-07-06T12:43:30.541Z,2.47
2018-07-06T12:45:58.813Z,2.40
2018-07-06T12:48:27.074Z,1.77
2018-07-06T12:50:55.593Z,1.80
2018-07-06T12:53:23.861Z,2.37
2018-07-06T12:55:52.128Z,2.37
2018-07-06T12:58:20.519Z,2.00
2018-07-06T13:00:48.798Z,2.10
2018-07-06T13:03:17.073Z,2.33
2018-07-06T13:05:45.326Z,2.37
2018-07-06T13:08:13.621Z,2.20
2018-07-06T13:10:41.893Z,2.27
2018-07-06T13:13:10.360Z,2.40
2018-07-06T13:15:38.853Z,2.17
2018-07-06T13:18:07.366Z,2.30
2018-07-06T13:20:35.645Z,3.30
2018-07-06T13:23:03.993Z,2.77
2018-07-06T13:25:32.285Z,2.67
2018-07-06T13:28:00.774Z,3.50
2018-07-06T13:30:30.181Z,2.87
2018-07-06T13:32:58.534Z,2.50
2018-07-06T13:35:26.873Z,3.23
2018-07-06T13:37:56.210Z,2.40
2018-07-06T13:40:24.534Z,2.63
2018-07-06T13:42:52.845Z,2.03
2018-07-06T13:45:21.158Z,2.33
2018-07-06T13:47:49.449Z,2.67
2018-07-06T13:50:17.734Z,2.87
2018-07-06T13:52:46.015Z,2.33
2018-07-06T13:55:14.282Z,1.70
2018-07-06T13:57:42.566Z,2.70
2018-07-06T14:00:10.897Z,2.00
2018-07-06T14:02:39.254Z,3.50
2018-07-06T14:05:07.561Z,1.87
2018-07-06T14:07:35.924Z,2.20
2018-07-06T14:10:04.233Z,2.77
2018-07-06T14:12:32.565Z,2.13
2018-07-06T14:15:00.870Z,2.20
2018-07-06T14:17:29.177Z,2.50
2018-07-06T14:19:57.453Z,2.13
2018-07-06T14:22:25.743Z,2.63
2018-07-06T14:24:54.010Z,1.90
2018-07-06T14:27:22.293Z,2.43
2018-07-06T14:29:50.598Z,2.33
2018-07-06T14:32:18.909Z,2.13
2018-07-06T14:34:47.197Z,2.40
2018-07-06T14:37:15.609Z,2.60
2018-07-06T14:39:43.893Z,2.40
2018-07-06T14:42:12.192Z,2.90
2018-07-06T14:44:40.456Z,2.63
2018-07-06T14:47:08.786Z,2.30
2018-07-06T14:49:37.358Z,2.53
2018-07-06T14:52:05.660Z,3.00
2018-07-06T14:54:33.921Z,2.87
2018-07-06T14:57:02.210Z,2.43
2018-07-06T14:59:30.494Z,2.50
2018-07-06T15:01:58.913Z,2.40
2018-07-06T15:04:27.315Z,2.77
2018-07-06T15:06:55.639Z,2.60
2018-07-06T15:09:23.931Z,3.30
2018-07-06T15:11:52.385Z,2.13
2018-07-06T15:14:20.913Z,2.43
2018-07-06T15:16:49.181Z,2.30
2018-07-06T15:19:17.461Z,3.20
2018-07-06T15:21:45.940Z,2.87
2018-07-06T15:24:14.351Z,2.70
2018-07-06T15:26:42.685Z,2.17
2018-07-06T15:29:12.151Z,3.50
2018-07-06T15:31:40.469Z,2.30
2018-07-06T15:34:08.783Z,2.57
2018-07-06T15:36:37.105Z,2.23
2018-07-06T15:39:05.843Z,2.37
2018-07-06T15:41:34.121Z,2.73
2018-07-06T15:44:02.583Z,1.83
2018-07-06T15:46:30.853Z,3.07
2018-07-06T15:48:59.205Z,2.60
2018-07-06T15:51:27.553Z,2.40
2018-07-06T15:53:55.825Z,2.70
2018-07-06T15:56:24.095Z,2.30
2018-07-06T15:58:52.469Z,2.80
2018-07-06T16:01:20.737Z,2.13
2018-07-06T16:03:49.008Z,3.53
2018-07-06T16:06:17.670Z,2.57
2018-07-06T16:08:45.936Z,2.40
2018-07-06T16:11:14.309Z,2.60
2018-07-06T16:13:43.112Z,2.47
2018-07-06T16:16:11.421Z,3.20
2018-07-06T16:18:39.745Z,3.07
2018-07-06T16:21:08.090Z,2.50
2018-07-06T16:23:36.513Z,2.73
2018-07-06T16:26:04.837Z,2.10
2018-07-06T16:28:33.166Z,3.30
2018-07-06T16:31:01.525Z,2.40
2018-07-06T16:33:29.953Z,3.03
2018-07-06T16:35:58.249Z,3.27
2018-07-06T16:38:26.505Z,2.83
2018-07-06T16:40:54.800Z,2.50
2018-07-06T16:43:23.131Z,1.70
2018-07-06T16:45:51.533Z,2.30
2018-07-06T16:48:19.821Z,1.87
2018-07-06T16:50:48.090Z,2.57
2018-07-06T16:53:16.397Z,2.40
2018-07-06T16:55:44.697Z,2.60
2018-07-06T16:58:12.990Z,2.40
2018-07-06T17:00:41.293Z,2.40
2018-07-06T17:03:09.588Z,2.40
2018-07-06T17:05:37.865Z,2.33
2018-07-06T17:08:06.297Z,2.93
2018-07-06T17:10:34.557Z,2.17
2018-07-06T17:13:02.825Z,2.57
2018-07-06T17:15:31.153Z,3.07
2018-07-06T17:17:59.950Z,3.13
2018-07-06T17:20:28.322Z,2.13
2018-07-06T17:22:56.733Z,2.40
2018-07-06T17:25:25.001Z,2.83
2018-07-06T17:27:53.487Z,2.70
2018-07-06T17:30:21.677Z,2.63
2018-07-06T17:32:50.000Z,2.50
2018-07-06T17:35:18.389Z,2.73
2018-07-06T17:37:47.817Z,2.60
2018-07-06T17:40:16.077Z,3.33
2018-07-06T17:42:44.413Z,3.20
2018-07-06T17:45:12.803Z,2.60
2018-07-06T17:47:41.069Z,3.73
2018-07-06T17:50:09.486Z,2.67
2018-07-06T17:52:37.749Z,2.43
2018-07-06T17:55:06.446Z,2.27
2018-07-06T17:57:34.786Z,2.60
2018-07-06T18:00:03.162Z,2.30
2018-07-06T18:02:31.438Z,3.07
2018-07-06T18:04:59.721Z,3.07
2018-07-06T18:07:28.033Z,4.13
2018-07-06T18:09:56.289Z,4.43
2018-07-06T18:12:24.549Z,3.30
2018-07-06T18:14:52.864Z,3.87
2018-07-06T18:17:21.333Z,2.50
2018-07-06T18:19:49.641Z,4.30
2018-07-06T18:22:17.967Z,3.63
2018-07-06T18:24:46.253Z,3.37
2018-07-06T18:27:14.538Z,4.70
2018-07-06T18:29:42.904Z,3.50
2018-07-06T18:32:11.259Z,3.77
2018-07-06T18:34:39.549Z,2.97
2018-07-06T18:37:08.853Z,3.63
2018-07-06T18:39:37.158Z,2.97
2018-07-06T18:42:05.517Z,3.50
2018-07-06T18:44:33.806Z,4.47
2018-07-06T18:47:02.099Z,3.10
2018-07-06T18:49:30.354Z,2.83
2018-07-06T18:51:58.746Z,3.70
2018-07-06T18:54:27.157Z,3.93
2018-07-06T18:56:55.461Z,3.10
2018-07-06T18:59:23.727Z,3.53
2018-07-06T19:01:52.045Z,4.80
2018-07-06T19:04:20.390Z,3.27
2018-07-06T19:06:48.931Z,4.33
2018-07-06T19:09:17.192Z,3.30
2018-07-06T19:11:45.493Z,4.30
2018-07-06T19:14:13.765Z,3.80
2018-07-06T19:16:42.065Z,3.90
2018-07-06T19:19:10.354Z,2.70
2018-07-06T19:21:38.637Z,3.40
2018-07-06T19:24:06.945Z,3.83
2018-07-06T19:26:35.249Z,3.13
2018-07-06T19:29:03.530Z,3.47
2018-07-06T19:31:31.813Z,3.30
2018-07-06T19:34:00.106Z,3.70
2018-07-06T19:36:28.377Z,4.23
2018-07-06T19:38:56.657Z,3.30
2018-07-06T19:41:24.937Z,4.13
2018-07-06T19:43:53.259Z,2.90
2018-07-06T19:46:21.529Z,3.30
2018-07-06T19:48:49.806Z,2.60
2018-07-06T19:51:18.089Z,2.90
2018-07-06T19:53:46.365Z,3.37
2018-07-06T19:56:14.649Z,2.77
2018-07-06T19:58:42.937Z,3.53
2018-07-06T20:01:11.201Z,3.23
2018-07-06T20:03:39.533Z,4.03
2018-07-06T20:06:07.809Z,3.10
2018-07-06T20:08:37.155Z,3.93
2018-07-06T20:11:05.413Z,3.67
2018-07-06T20:13:33.766Z,3.83
2018-07-06T20:16:02.041Z,3.87
2018-07-06T20:18:30.389Z,4.63
2018-07-06T20:20:59.137Z,3.87
2018-07-06T20:23:27.577Z,4.00
2018-07-06T20:25:55.864Z,4.17
2018-07-06T20:28:24.129Z,3.50
2018-07-06T20:30:52.401Z,2.97
2018-07-06T20:33:20.693Z,3.40
2018-07-06T20:35:48.960Z,3.93
2018-07-06T20:38:17.216Z,3.80
2018-07-06T20:40:45.819Z,4.20
2018-07-06T20:43:14.084Z,3.03
2018-07-06T20:45:42.516Z,3.03
2018-07-06T20:48:10.959Z,4.37
2018-07-06T20:50:39.245Z,3.70
2018-07-06T20:53:07.510Z,3.40
2018-07-06T20:55:35.821Z,4.30
2018-07-06T20:58:04.105Z,3.80
2018-07-06T21:00:32.381Z,3.37
2018-07-06T21:03:00.732Z,3.10
2018-07-06T21:05:28.995Z,3.95
2018-07-06T21:08:03.809Z,3.53
2018-07-06T21:10:32.065Z,5.53
2018-07-06T21:13:00.333Z,3.77
2018-07-06T21:15:28.645Z,3.20
2018-07-06T21:17:56.929Z,4.80
2018-07-06T21:20:25.197Z,3.00
2018-07-06T21:22:53.549Z,3.50
2018-07-06T21:25:21.968Z,3.97
2018-07-06T21:27:50.434Z,4.70
2018-07-06T21:30:18.701Z,4.63
2018-07-06T21:32:46.981Z,3.27
2018-07-06T21:35:15.278Z,3.37
2018-07-06T21:37:43.569Z,3.07
2018-07-06T21:40:11.881Z,4.13
2018-07-06T21:42:40.190Z,3.40
2018-07-06T21:45:08.480Z,2.90
2018-07-06T21:47:36.854Z,3.20
2018-07-06T21:50:05.309Z,3.40
2018-07-06T21:52:33.734Z,3.30
2018-07-06T21:55:02.066Z,3.97
2018-07-06T21:57:30.369Z,3.43
2018-07-06T21:59:58.760Z,3.90
2018-07-06T22:02:27.053Z,3.77
2018-07-06T22:04:55.365Z,3.40
2018-07-06T22:07:23.634Z,3.00
2018-07-06T22:09:51.910Z,3.80
2018-07-06T22:12:20.206Z,3.57
2018-07-06T22:14:48.470Z,3.50
2018-07-06T22:17:16.761Z,3.90
2018-07-06T22:19:45.068Z,2.80
2018-07-06T22:22:13.333Z,3.37
2018-07-06T22:24:41.701Z,4.40
2018-07-06T22:27:10.050Z,3.40
2018-07-06T22:29:38.342Z,2.93
2018-07-06T22:32:07.697Z,3.67
2018-07-06T22:34:35.985Z,3.90
2018-07-06T22:37:04.285Z,3.20
2018-07-06T22:39:33.668Z,3.77
2018-07-06T22:42:02.298Z,2.97
2018-07-06T22:44:30.594Z,3.80
2018-07-06T22:46:58.873Z,4.73
2018-07-06T22:49:27.433Z,3.27
2018-07-06T22:51:55.714Z,3.60
2018-07-06T22:54:24.000Z,3.30
2018-07-06T22:56:52.464Z,3.53
2018-07-06T22:59:20.761Z,4.27
2018-07-06T23:01:49.033Z,3.00
2018-07-06T23:04:17.399Z,3.07
2018-07-06T23:06:45.614Z,3.40
2018-07-06T23:09:13.881Z,3.63
2018-07-06T23:11:42.211Z,4.27
2018-07-06T23:14:10.514Z,4.10
2018-07-06T23:16:38.817Z,3.90
2018-07-06T23:19:07.183Z,3.23
2018-07-06T23:21:35.477Z,3.03
2018-07-06T23:24:03.757Z,3.80
2018-07-06T23:26:32.063Z,3.63
2018-07-06T23:29:01.393Z,4.77
2018-07-06T23:31:29.697Z,2.63
2018-07-06T23:33:58.013Z,4.53
2018-07-06T23:36:26.305Z,2.80
2018-07-06T23:38:55.570Z,4.40
2018-07-06T23:41:23.893Z,3.73
2018-07-06T23:43:52.745Z,4.10
2018-07-06T23:46:21.026Z,4.00
2018-07-06T23:48:51.528Z,3.40
2018-07-06T23:51:19.964Z,3.63
2018-07-06T23:53:48.329Z,4.20
2018-07-06T23:56:18.085Z,3.43
2018-07-06T23:58:46.393Z,3.40
